createdAt,value
2023-05-19T00:01:13.678Z,13.93
2023-05-19T00:03:52.473Z,13.97
2023-05-19T00:06:24.992Z,13.91
2023-05-19T00:08:57.678Z,13.87
2023-05-19T00:11:26.465Z,13.83
2023-05-19T00:13:58.573Z,13.72
2023-05-19T00:16:27.429Z,13.73
2023-05-19T00:18:54.324Z,13.73
2023-05-19T00:21:21.019Z,13.72
2023-05-19T00:23:47.636Z,13.68
2023-05-19T00:26:14.254Z,13.63
2023-05-19T00:28:50.996Z,13.65
2023-05-19T00:31:17.688Z,13.64
2023-05-19T00:33:44.744Z,13.56
2023-05-19T00:36:11.683Z,13.54
2023-05-19T00:38:38.373Z,13.52
2023-05-19T00:41:06.342Z,13.47
2023-05-19T00:43:34.396Z,13.47
2023-05-19T00:46:01.238Z,13.44
2023-05-19T00:48:28.022Z,13.36
2023-05-19T00:51:01.913Z,13.30
2023-05-19T00:53:29.223Z,13.41
2023-05-19T00:55:56.100Z,13.34
2023-05-19T00:58:23.827Z,13.32
2023-05-19T01:00:50.627Z,13.34
2023-05-19T01:03:20.530Z,13.37
2023-05-19T01:05:53.633Z,13.23
2023-05-19T01:08:20.352Z,13.25
2023-05-19T01:10:46.950Z,13.20
2023-05-19T01:13:13.849Z,13.16
2023-05-19T01:15:57.892Z,13.04
2023-05-19T01:18:47.435Z,13.04
2023-05-19T01:21:44.527Z,13.12
2023-05-19T01:24:14.533Z,13.09
2023-05-19T01:27:07.435Z,13.06
2023-05-19T01:29:48.414Z,13.06
2023-05-19T01:32:18.537Z,13.05
2023-05-19T01:34:46.932Z,12.99
2023-05-19T01:37:16.164Z,12.86
2023-05-19T01:39:44.709Z,12.88
2023-05-19T01:42:12.790Z,12.88
2023-05-19T01:44:39.609Z,12.85
2023-05-19T01:47:06.460Z,12.71
2023-05-19T01:49:33.036Z,12.79
2023-05-19T01:51:59.566Z,12.72
2023-05-19T01:54:26.155Z,12.70
2023-05-19T01:57:04.008Z,12.65
2023-05-19T01:59:44.837Z,12.69
2023-05-19T02:02:34.316Z,12.71
2023-05-19T02:05:13.454Z,12.75
2023-05-19T02:07:44.815Z,12.70
2023-05-19T02:10:19.195Z,12.74
2023-05-19T02:12:46.072Z,12.66
2023-05-19T02:15:18.915Z,12.65
2023-05-19T02:17:48.320Z,12.46
2023-05-19T02:20:16.179Z,12.56
2023-05-19T02:22:42.899Z,12.56
2023-05-19T02:25:10.098Z,12.54
2023-05-19T02:27:38.300Z,12.54
2023-05-19T02:30:06.149Z,12.51
2023-05-19T02:32:33.354Z,12.51
2023-05-19T02:35:00.059Z,12.51
2023-05-19T02:37:35.290Z,12.49
2023-05-19T02:40:01.809Z,12.45
2023-05-19T02:42:29.586Z,12.38
2023-05-19T02:44:56.220Z,12.37
2023-05-19T02:47:22.936Z,12.32
2023-05-19T02:49:49.558Z,12.27
2023-05-19T02:52:16.161Z,12.30
2023-05-19T02:54:43.649Z,12.32
2023-05-19T02:57:11.148Z,12.22
2023-05-19T02:59:37.759Z,12.33
2023-05-19T03:02:04.664Z,11.81
2023-05-19T03:04:31.273Z,11.75
2023-05-19T03:06:57.880Z,11.77
2023-05-19T03:09:24.641Z,11.75
2023-05-19T03:11:51.407Z,11.84
2023-05-19T03:14:18.532Z,11.84
2023-05-19T03:16:45.321Z,11.81
2023-05-19T03:19:12.392Z,11.78
2023-05-19T03:21:39.215Z,11.77
2023-05-19T03:24:06.662Z,11.66
2023-05-19T03:26:33.687Z,11.60
2023-05-19T03:29:00.957Z,11.62
2023-05-19T03:31:28.380Z,11.56
2023-05-19T03:33:55.189Z,11.49
2023-05-19T03:36:22.542Z,11.41
2023-05-19T03:38:49.518Z,11.28
2023-05-19T03:41:16.202Z,11.38
2023-05-19T03:43:42.772Z,11.40
2023-05-19T03:46:10.244Z,11.30
2023-05-19T03:48:52.614Z,11.32
2023-05-19T03:51:25.098Z,11.28
2023-05-19T03:53:55.915Z,11.24
2023-05-19T03:56:23.593Z,11.21
2023-05-19T03:58:50.223Z,11.22
2023-05-19T04:01:17.474Z,11.18
2023-05-19T04:03:44.094Z,11.21
2023-05-19T04:06:10.979Z,11.19
2023-05-19T04:08:37.538Z,11.19
2023-05-19T04:11:04.266Z,11.15
2023-05-19T04:13:33.808Z,11.13
2023-05-19T04:16:01.080Z,11.14
2023-05-19T04:18:29.014Z,11.11
2023-05-19T04:20:55.968Z,11.05
2023-05-19T04:23:22.602Z,11.10
2023-05-19T04:25:49.771Z,11.15
2023-05-19T04:28:16.485Z,11.10
2023-05-19T04:30:43.175Z,11.10
2023-05-19T04:33:09.965Z,11.12
2023-05-19T04:35:38.072Z,11.14
2023-05-19T04:38:04.680Z,11.15
2023-05-19T04:40:33.660Z,11.12
2023-05-19T04:43:02.377Z,11.06
2023-05-19T04:45:30.133Z,11.09
2023-05-19T04:48:00.126Z,11.14
2023-05-19T04:50:28.572Z,11.57
2023-05-19T04:52:58.976Z,11.53
2023-05-19T04:55:26.021Z,11.42
2023-05-19T04:57:53.376Z,11.13
2023-05-19T05:00:21.220Z,11.11
2023-05-19T05:03:08.248Z,11.14
2023-05-19T05:05:35.269Z,11.15
2023-05-19T05:08:01.870Z,11.14
2023-05-19T05:10:32.602Z,11.27
2023-05-19T05:13:00.733Z,11.53
2023-05-19T05:15:28.868Z,11.57
2023-05-19T05:17:57.994Z,11.63
2023-05-19T05:20:25.396Z,11.61
2023-05-19T05:22:52.387Z,11.60
2023-05-19T05:25:20.498Z,11.53
2023-05-19T05:27:48.084Z,11.58
2023-05-19T05:30:14.691Z,11.67
2023-05-19T05:32:42.326Z,11.62
2023-05-19T05:35:18.094Z,11.66
2023-05-19T05:37:44.754Z,11.64
2023-05-19T05:40:11.907Z,11.70
2023-05-19T05:42:39.037Z,11.72
2023-05-19T05:45:06.361Z,11.75
2023-05-19T05:47:33.577Z,11.82
2023-05-19T05:50:00.534Z,11.83
2023-05-19T05:52:30.590Z,11.85
2023-05-19T05:54:59.158Z,11.89
2023-05-19T05:57:26.992Z,11.90
2023-05-19T05:59:53.712Z,11.92
2023-05-19T06:02:20.786Z,11.97
2023-05-19T06:04:47.579Z,12.13
2023-05-19T06:07:14.186Z,12.01
2023-05-19T06:09:40.844Z,12.03
2023-05-19T06:12:09.061Z,12.71
2023-05-19T06:14:41.013Z,12.08
2023-05-19T06:17:36.601Z,12.13
2023-05-19T06:20:08.607Z,12.13
2023-05-19T06:22:35.264Z,12.14
2023-05-19T06:25:03.735Z,12.11
2023-05-19T06:27:31.744Z,12.15
2023-05-19T06:30:00.500Z,12.19
2023-05-19T06:32:30.324Z,12.21
2023-05-19T06:35:00.241Z,12.24
2023-05-19T06:37:26.831Z,12.22
2023-05-19T06:39:55.383Z,12.30
2023-05-19T06:42:22.789Z,12.36
2023-05-19T06:44:57.035Z,12.43
2023-05-19T06:47:24.055Z,12.49
2023-05-19T06:49:55.504Z,12.54
2023-05-19T06:52:25.586Z,12.58
2023-05-19T06:54:52.977Z,12.65
2023-05-19T06:57:19.545Z,12.67
2023-05-19T06:59:46.697Z,13.07
2023-05-19T07:02:14.160Z,13.18
2023-05-19T07:04:41.052Z,12.72
2023-05-19T07:07:08.028Z,12.80
2023-05-19T07:09:35.515Z,12.85
2023-05-19T07:12:03.146Z,12.88
2023-05-19T07:14:30.309Z,12.90
2023-05-19T07:16:56.894Z,13.03
2023-05-19T07:19:24.346Z,13.08
2023-05-19T07:21:53.418Z,13.05
2023-05-19T07:24:21.433Z,13.19
2023-05-19T07:26:48.161Z,13.18
2023-05-19T07:29:14.729Z,15.84
2023-05-19T07:31:41.387Z,16.38
2023-05-19T07:34:08.734Z,17.54
2023-05-19T07:36:35.941Z,17.92
2023-05-19T07:39:02.591Z,18.12
2023-05-19T07:41:29.151Z,18.26
2023-05-19T07:43:55.892Z,18.37
2023-05-19T07:46:22.523Z,18.47
2023-05-19T07:48:49.135Z,18.59
2023-05-19T07:51:16.160Z,18.68
2023-05-19T07:53:42.704Z,18.52
2023-05-19T07:56:09.281Z,17.79
2023-05-19T07:58:35.880Z,17.41
2023-05-19T08:01:02.429Z,18.59
2023-05-19T08:03:30.592Z,18.72
2023-05-19T08:05:57.398Z,18.87
2023-05-19T08:08:24.148Z,18.97
2023-05-19T08:10:50.733Z,19.03
2023-05-19T08:13:17.286Z,19.10
2023-05-19T08:15:44.056Z,19.17
2023-05-19T08:18:10.848Z,19.31
2023-05-19T08:20:37.547Z,19.35
2023-05-19T08:23:04.167Z,19.40
2023-05-19T08:25:30.716Z,18.16
2023-05-19T08:27:57.265Z,18.07
2023-05-19T08:30:24.231Z,18.25
2023-05-19T08:32:51.165Z,18.20
2023-05-19T08:35:17.810Z,18.09
2023-05-19T08:37:44.397Z,18.02
2023-05-19T08:40:17.484Z,15.96
2023-05-19T08:42:45.960Z,15.17
2023-05-19T08:45:13.171Z,15.03
2023-05-19T08:47:46.299Z,17.19
2023-05-19T08:50:17.612Z,17.79
2023-05-19T08:52:53.729Z,17.90
2023-05-19T08:55:34.529Z,15.54
2023-05-19T08:58:03.447Z,15.40
2023-05-19T09:00:30.674Z,15.17
2023-05-19T09:03:06.009Z,17.48
2023-05-19T09:05:38.762Z,16.06
2023-05-19T09:08:05.906Z,16.86
2023-05-19T09:10:32.451Z,16.89
2023-05-19T09:12:59.030Z,16.94
2023-05-19T09:15:28.022Z,16.38
2023-05-19T09:18:09.298Z,16.35
2023-05-19T09:20:43.671Z,16.26
2023-05-19T09:23:15.021Z,16.10
2023-05-19T09:25:53.913Z,16.30
2023-05-19T09:28:36.246Z,16.48
2023-05-19T09:31:08.226Z,16.42
2023-05-19T09:33:40.348Z,16.49
2023-05-19T09:36:08.715Z,16.49
2023-05-19T09:38:36.461Z,16.74
2023-05-19T09:41:05.807Z,16.62
2023-05-19T09:43:33.882Z,16.49
2023-05-19T09:46:03.962Z,16.47
2023-05-19T09:48:30.765Z,16.66
2023-05-19T09:50:58.143Z,16.39
2023-05-19T09:53:25.416Z,16.45
2023-05-19T09:55:57.546Z,16.17
2023-05-19T09:58:24.785Z,16.23
2023-05-19T10:00:52.538Z,16.92
2023-05-19T10:03:19.713Z,17.13
2023-05-19T10:05:47.510Z,17.35
2023-05-19T10:08:17.692Z,17.60
2023-05-19T10:10:48.420Z,17.70
2023-05-19T10:13:16.407Z,17.79
2023-05-19T10:15:57.497Z,17.87
2023-05-19T10:18:26.603Z,17.88
2023-05-19T10:20:54.302Z,18.01
2023-05-19T10:23:21.057Z,18.14
2023-05-19T10:25:49.217Z,18.14
2023-05-19T10:28:21.270Z,18.08
2023-05-19T10:30:50.813Z,18.20
2023-05-19T10:33:19.991Z,18.26
2023-05-19T10:36:11.826Z,18.58
2023-05-19T10:39:05.032Z,18.72
2023-05-19T10:42:02.051Z,18.81
2023-05-19T10:44:45.026Z,18.79
2023-05-19T10:47:12.347Z,18.73
2023-05-19T10:49:39.694Z,18.79
2023-05-19T10:52:23.377Z,19.04
2023-05-19T10:54:51.360Z,18.92
2023-05-19T10:57:19.805Z,18.98
2023-05-19T10:59:47.045Z,19.00
2023-05-19T11:02:41.066Z,19.23
2023-05-19T11:05:09.557Z,19.03
2023-05-19T11:07:36.433Z,19.06
2023-05-19T11:10:07.568Z,19.01
2023-05-19T11:12:44.691Z,18.98
2023-05-19T11:15:15.571Z,18.99
2023-05-19T11:17:46.113Z,18.93
2023-05-19T11:20:22.678Z,19.17
2023-05-19T11:23:06.236Z,19.19
2023-05-19T11:25:50.812Z,19.04
2023-05-19T11:28:20.012Z,18.92
2023-05-19T11:30:51.862Z,19.04
2023-05-19T11:33:20.372Z,18.88
2023-05-19T11:35:49.373Z,18.87
2023-05-19T11:38:18.445Z,18.88
2023-05-19T11:40:45.236Z,18.85
2023-05-19T11:43:11.815Z,18.89
2023-05-19T11:45:38.672Z,18.82
2023-05-19T11:48:06.274Z,18.94
2023-05-19T11:50:33.285Z,19.00
2023-05-19T11:53:01.290Z,19.12
2023-05-19T11:55:28.581Z,19.20
2023-05-19T11:58:02.809Z,19.19
2023-05-19T12:00:37.553Z,19.17
2023-05-19T12:03:04.744Z,19.14
2023-05-19T12:05:34.501Z,19.16
2023-05-19T12:08:03.121Z,19.36
2023-05-19T12:10:31.729Z,19.35
2023-05-19T12:12:59.746Z,19.35
2023-05-19T12:15:26.522Z,19.38
2023-05-19T12:18:01.027Z,19.50
2023-05-19T12:20:31.865Z,19.48
2023-05-19T12:23:00.140Z,19.51
2023-05-19T12:25:27.381Z,19.53
2023-05-19T12:27:58.404Z,19.65
2023-05-19T12:30:28.716Z,19.62
2023-05-19T12:32:58.661Z,19.64
2023-05-19T12:35:36.475Z,19.65
2023-05-19T12:38:04.747Z,19.64
2023-05-19T12:40:31.914Z,19.73
2023-05-19T12:43:01.546Z,19.77
2023-05-19T12:45:28.826Z,19.89
2023-05-19T12:47:56.109Z,19.92
2023-05-19T12:50:30.185Z,20.07
2023-05-19T12:52:58.386Z,20.08
2023-05-19T12:55:24.934Z,20.12
2023-05-19T12:57:57.833Z,20.27
2023-05-19T13:00:27.751Z,20.38
2023-05-19T13:03:01.768Z,20.36
2023-05-19T13:05:30.241Z,20.31
2023-05-19T13:07:58.479Z,20.24
2023-05-19T13:10:27.653Z,20.23
2023-05-19T13:12:58.930Z,20.43
2023-05-19T13:15:28.017Z,20.55
2023-05-19T13:17:55.056Z,20.62
2023-05-19T13:20:22.083Z,20.68
2023-05-19T13:22:49.156Z,20.72
2023-05-19T13:25:16.396Z,20.60
2023-05-19T13:27:45.799Z,20.65
2023-05-19T13:30:12.830Z,20.73
2023-05-19T13:32:39.516Z,20.88
2023-05-19T13:35:06.771Z,20.97
2023-05-19T13:37:33.572Z,21.13
2023-05-19T13:40:00.362Z,21.26
2023-05-19T13:42:26.957Z,21.33
2023-05-19T13:44:56.983Z,21.45
2023-05-19T13:47:24.201Z,21.46
2023-05-19T13:49:51.710Z,21.60
2023-05-19T13:52:19.608Z,21.57
2023-05-19T13:54:46.562Z,21.63
2023-05-19T13:57:13.276Z,21.74
2023-05-19T13:59:52.957Z,21.72
2023-05-19T14:02:26.717Z,21.88
2023-05-19T14:04:53.514Z,21.93
2023-05-19T14:07:20.096Z,21.97
2023-05-19T14:09:46.872Z,22.14
2023-05-19T14:12:13.699Z,22.37
2023-05-19T14:14:40.485Z,22.79
2023-05-19T14:17:07.106Z,22.47
2023-05-19T14:19:33.694Z,22.94
2023-05-19T14:22:00.336Z,23.09
2023-05-19T14:24:26.932Z,21.82
2023-05-19T14:26:53.779Z,21.83
2023-05-19T14:29:20.376Z,22.13
2023-05-19T14:31:47.232Z,23.03
2023-05-19T14:34:17.705Z,23.29
2023-05-19T14:36:44.648Z,23.49
2023-05-19T14:39:11.867Z,23.38
2023-05-19T14:41:38.553Z,23.24
2023-05-19T14:44:05.788Z,23.32
2023-05-19T14:46:32.361Z,23.41
2023-05-19T14:48:58.961Z,23.44
2023-05-19T14:51:25.641Z,23.40
2023-05-19T14:53:52.244Z,23.51
2023-05-19T14:56:18.790Z,23.54
2023-05-19T14:58:45.358Z,23.48
2023-05-19T15:01:11.971Z,23.59
2023-05-19T15:03:38.601Z,23.71
2023-05-19T15:06:11.714Z,23.75
2023-05-19T15:08:39.222Z,23.66
2023-05-19T15:11:05.847Z,23.61
2023-05-19T15:13:32.427Z,23.35
2023-05-19T15:16:08.226Z,23.40
2023-05-19T15:18:42.042Z,23.45
2023-05-19T15:21:08.591Z,23.47
2023-05-19T15:23:35.125Z,23.70
2023-05-19T15:26:01.734Z,23.89
2023-05-19T15:28:28.298Z,23.95
2023-05-19T15:30:55.893Z,23.15
2023-05-19T15:33:22.558Z,22.96
2023-05-19T15:35:51.630Z,22.87
2023-05-19T15:38:19.370Z,22.88
2023-05-19T15:40:46.654Z,22.95
2023-05-19T15:43:13.452Z,23.94
2023-05-19T15:45:40.066Z,23.36
2023-05-19T15:48:07.019Z,24.01
2023-05-19T15:50:33.855Z,24.50
2023-05-19T15:53:00.624Z,24.92
2023-05-19T15:55:27.159Z,25.11
2023-05-19T15:57:53.702Z,25.04
2023-05-19T16:00:20.429Z,25.05
2023-05-19T16:02:47.059Z,25.15
2023-05-19T16:05:14.275Z,25.15
2023-05-19T16:07:42.028Z,25.27
2023-05-19T16:10:09.173Z,25.38
2023-05-19T16:12:36.609Z,25.39
2023-05-19T16:15:03.783Z,25.44
2023-05-19T16:17:30.655Z,25.48
2023-05-19T16:19:57.285Z,25.58
2023-05-19T16:22:24.867Z,25.50
2023-05-19T16:24:52.286Z,25.44
2023-05-19T16:27:19.188Z,25.28
2023-05-19T16:29:45.919Z,25.29
2023-05-19T16:32:12.927Z,25.33
2023-05-19T16:34:39.788Z,25.42
2023-05-19T16:37:06.403Z,25.47
2023-05-19T16:39:35.919Z,25.59
2023-05-19T16:42:03.098Z,25.66
2023-05-19T16:44:29.825Z,25.72
2023-05-19T16:46:56.352Z,25.80
2023-05-19T16:49:22.894Z,25.71
2023-05-19T16:51:49.696Z,25.49
2023-05-19T16:54:16.312Z,25.27
2023-05-19T16:56:42.997Z,25.16
2023-05-19T16:59:09.756Z,25.22
2023-05-19T17:01:36.364Z,25.25
2023-05-19T17:04:02.965Z,25.37
2023-05-19T17:06:29.638Z,25.34
2023-05-19T17:08:56.200Z,24.70
2023-05-19T17:11:22.889Z,24.71
2023-05-19T17:13:49.424Z,24.87
2023-05-19T17:16:16.072Z,24.84
2023-05-19T17:18:43.600Z,24.87
2023-05-19T17:21:10.588Z,24.81
2023-05-19T17:23:37.822Z,25.33
2023-05-19T17:26:04.580Z,25.18
2023-05-19T17:28:31.165Z,25.12
2023-05-19T17:30:57.832Z,25.14
2023-05-19T17:33:24.624Z,25.11
2023-05-19T17:35:51.389Z,25.14
2023-05-19T17:38:17.972Z,25.17
2023-05-19T17:40:44.594Z,25.20
2023-05-19T17:43:11.296Z,25.19
2023-05-19T17:45:37.888Z,25.16
2023-05-19T17:48:04.941Z,25.13
2023-05-19T17:50:31.869Z,25.08
2023-05-19T17:52:58.886Z,25.08
2023-05-19T17:55:29.695Z,25.09
2023-05-19T17:57:56.879Z,25.08
2023-05-19T18:00:25.043Z,25.14
2023-05-19T18:02:52.433Z,25.05
2023-05-19T18:05:19.556Z,25.09
2023-05-19T18:07:46.376Z,25.06
2023-05-19T18:10:15.524Z,24.96
2023-05-19T18:12:42.195Z,24.78
2023-05-19T18:15:09.061Z,24.58
2023-05-19T18:17:35.708Z,24.47
2023-05-19T18:20:02.475Z,24.36
2023-05-19T18:22:29.082Z,24.17
2023-05-19T18:24:57.566Z,24.04
2023-05-19T18:27:24.101Z,23.88
2023-05-19T18:29:50.672Z,23.78
2023-05-19T18:32:17.742Z,23.73
2023-05-19T18:34:44.443Z,23.67
2023-05-19T18:37:11.028Z,23.58
2023-05-19T18:39:37.554Z,23.43
2023-05-19T18:42:04.307Z,23.38
2023-05-19T18:44:31.011Z,23.33
2023-05-19T18:46:57.622Z,23.29
2023-05-19T18:49:25.049Z,23.20
2023-05-19T18:51:51.849Z,23.06
2023-05-19T18:54:19.430Z,23.03
2023-05-19T18:56:46.026Z,22.95
2023-05-19T18:59:12.561Z,22.90
2023-05-19T19:01:39.305Z,22.85
2023-05-19T19:04:06.236Z,22.78
2023-05-19T19:06:32.861Z,22.74
2023-05-19T19:08:59.391Z,22.67
2023-05-19T19:11:26.383Z,22.66
2023-05-19T19:13:55.447Z,22.59
2023-05-19T19:16:22.546Z,22.53
2023-05-19T19:18:49.300Z,22.48
2023-05-19T19:21:15.982Z,22.45
2023-05-19T19:23:42.498Z,22.41
2023-05-19T19:26:09.543Z,22.37
2023-05-19T19:28:36.445Z,22.29
2023-05-19T19:31:03.168Z,22.26
2023-05-19T19:33:29.764Z,22.24
2023-05-19T19:35:56.449Z,22.22
2023-05-19T19:38:23.126Z,22.18
2023-05-19T19:40:52.453Z,22.02
2023-05-19T19:43:19.452Z,22.02
2023-05-19T19:45:46.065Z,21.98
2023-05-19T19:48:12.725Z,21.90
2023-05-19T19:50:39.361Z,21.82
2023-05-19T19:53:06.017Z,21.77
2023-05-19T19:55:32.796Z,21.71
2023-05-19T19:57:59.348Z,21.61
2023-05-19T20:00:25.923Z,21.55
2023-05-19T20:03:04.336Z,21.49
2023-05-19T20:05:31.967Z,21.46
2023-05-19T20:07:58.586Z,21.44
2023-05-19T20:10:25.178Z,21.35
2023-05-19T20:12:52.193Z,21.29
2023-05-19T20:15:18.781Z,21.25
2023-05-19T20:17:45.865Z,21.17
2023-05-19T20:20:13.013Z,21.17
2023-05-19T20:22:39.619Z,21.09
2023-05-19T20:25:06.572Z,21.04
2023-05-19T20:27:33.238Z,20.92
2023-05-19T20:29:59.909Z,20.89
2023-05-19T20:32:26.570Z,20.87
2023-05-19T20:34:53.225Z,20.81
2023-05-19T20:37:21.524Z,20.73
2023-05-19T20:39:48.099Z,20.75
2023-05-19T20:42:14.765Z,20.72
2023-05-19T20:44:42.669Z,20.72
2023-05-19T20:47:09.465Z,20.58
2023-05-19T20:49:36.067Z,20.51
2023-05-19T20:52:02.695Z,20.47
2023-05-19T20:54:29.341Z,20.47
2023-05-19T20:56:55.964Z,20.45
2023-05-19T20:59:22.558Z,20.38
2023-05-19T21:01:49.184Z,20.38
2023-05-19T21:04:16.003Z,20.31
2023-05-19T21:06:42.635Z,20.26
2023-05-19T21:09:10.472Z,20.26
2023-05-19T21:11:37.140Z,20.22
2023-05-19T21:14:04.293Z,20.07
2023-05-19T21:16:31.935Z,20.01
2023-05-19T21:18:58.692Z,19.97
2023-05-19T21:21:26.166Z,19.97
2023-05-19T21:23:52.870Z,19.98
2023-05-19T21:26:19.457Z,19.92
2023-05-19T21:28:46.186Z,19.87
2023-05-19T21:31:12.796Z,19.77
2023-05-19T21:33:39.387Z,19.78
2023-05-19T21:36:06.047Z,19.75
2023-05-19T21:38:32.604Z,19.86
2023-05-19T21:40:59.188Z,19.73
2023-05-19T21:43:25.922Z,19.66
2023-05-19T21:45:52.493Z,19.62
2023-05-19T21:48:19.158Z,19.53
2023-05-19T21:50:45.737Z,19.52
2023-05-19T21:53:12.284Z,19.47
2023-05-19T21:55:39.334Z,19.41
2023-05-19T21:58:06.145Z,19.42
2023-05-19T22:00:33.041Z,19.35
2023-05-19T22:02:59.966Z,19.28
2023-05-19T22:05:28.898Z,19.24
2023-05-19T22:07:55.798Z,19.21
2023-05-19T22:10:22.425Z,19.19
2023-05-19T22:12:49.006Z,19.12
2023-05-19T22:15:15.866Z,19.05
2023-05-19T22:17:42.610Z,19.02
2023-05-19T22:20:09.586Z,18.99
2023-05-19T22:22:36.367Z,18.93
2023-05-19T22:25:03.698Z,18.83
2023-05-19T22:27:30.692Z,18.75
2023-05-19T22:29:57.297Z,18.75
2023-05-19T22:32:24.065Z,18.63
2023-05-19T22:34:50.882Z,18.63
2023-05-19T22:37:17.494Z,18.64
2023-05-19T22:39:44.210Z,18.54
2023-05-19T22:42:11.051Z,18.71
2023-05-19T22:44:37.641Z,18.53
2023-05-19T22:47:04.279Z,18.45
2023-05-19T22:49:30.991Z,18.39
2023-05-19T22:51:57.500Z,18.29
2023-05-19T22:54:24.098Z,18.24
2023-05-19T22:56:50.755Z,18.27
2023-05-19T22:59:18.049Z,18.21
2023-05-19T23:01:46.506Z,18.19
2023-05-19T23:04:13.835Z,18.10
2023-05-19T23:06:41.224Z,18.15
2023-05-19T23:09:07.976Z,18.00
2023-05-19T23:11:35.848Z,18.02
2023-05-19T23:14:02.547Z,18.04
2023-05-19T23:16:29.224Z,18.02
2023-05-19T23:18:55.876Z,17.69
2023-05-19T23:21:22.684Z,17.43
2023-05-19T23:23:49.892Z,18.34
2023-05-19T23:26:16.791Z,18.39
2023-05-19T23:28:43.468Z,18.39
2023-05-19T23:31:10.513Z,17.81
2023-05-19T23:33:37.050Z,17.90
2023-05-19T23:36:07.764Z,17.38
2023-05-19T23:38:35.102Z,17.29
2023-05-19T23:41:02.254Z,17.13
2023-05-19T23:43:28.966Z,17.09
2023-05-19T23:45:55.551Z,16.99
2023-05-19T23:48:22.081Z,17.04
2023-05-19T23:50:48.886Z,16.99
2023-05-19T23:53:15.530Z,17.57
2023-05-19T23:55:42.202Z,16.90
2023-05-19T23:58:08.915Z,16.87
